Time;durP1;ratioP1;P1;durP2;ratioP2;P2;SDS_P1;SDS_P2;PMS_P1;PMS_P2;Temp;Humidity;BMP_temperature;BMP_pressure;BME280_temperature;BME280_humidity;BME280_pressure;Samples;Min_cycle;Max_cycle;Signal;HPM_P1;HPM_P2
2021/12/21 00:00:42;;;;;;;;;2.50;1.00;;;;;21.76;34.37;102361.41;5051039;28;46250;-72
2021/12/21 00:03:08;;;;;;;;;2.25;2.00;;;;;21.74;34.65;102370.34;5053233;28;45487;-72
2021/12/21 00:05:33;;;;;;;;;3.00;3.00;;;;;21.76;34.48;102361.41;5037569;28;45493;-72
2021/12/21 00:08:01;;;;;;;;;3.75;3.75;;;;;21.74;34.23;102356.25;5051797;28;45459;-72
2021/12/21 00:10:29;;;;;;;;;3.00;3.00;;;;;21.73;34.25;102360.72;5052751;28;46394;-72
2021/12/21 00:16:15;;;;;;;;;2.00;2.00;;;;;21.70;34.27;102350.38;5052655;28;45509;-72
2021/12/21 00:25:44;;;;;;;;;2.50;2.50;;;;;21.60;34.09;102346.91;5056206;28;45368;-72
2021/12/21 00:28:10;;;;;;;;;4.75;1.75;;;;;21.67;34.26;102357.81;5056066;28;45512;-72
2021/12/21 00:30:35;;;;;;;;;2.00;2.00;;;;;21.66;34.27;102362.25;5055868;28;46600;-72
2021/12/21 00:33:00;;;;;;;;;4.75;2.25;;;;;21.67;33.92;102363.09;5056135;28;45443;-72
2021/12/21 00:35:26;;;;;;;;;2.50;2.00;;;;;21.64;34.24;102358.91;5057957;28;45320;-72
2021/12/21 00:37:51;;;;;;;;;1.00;1.00;;;;;21.59;34.26;102350.56;5056011;28;45453;-72
2021/12/21 00:40:17;;;;;;;;;3.50;3.00;;;;;21.59;34.12;102354.03;5054499;28;46056;-72
2021/12/21 00:42:42;;;;;;;;;6.50;4.75;;;;;21.59;34.25;102347.91;5055932;28;45515;-72
2021/12/21 00:45:08;;;;;;;;;1.75;1.25;;;;;21.24;34.15;102299.81;5055737;28;45421;-72
2021/12/21 00:47:35;;;;;;;;;3.25;2.75;;;;;21.62;33.96;102353.75;5058025;28;45464;-72
2021/12/21 00:50:01;;;;;;;;;2.50;2.50;;;;;21.49;34.13;102330.19;5056210;28;46054;-72
2021/12/21 00:52:27;;;;;;;;;1.75;1.75;;;;;21.60;34.05;102341.63;5033195;28;45620;-72
2021/12/21 00:54:53;;;;;;;;;1.50;1.50;;;;;21.61;33.83;102351.25;5045088;28;45349;-72
2021/12/21 00:57:18;;;;;;;;;4.50;3.00;;;;;21.61;33.93;102349.44;5055924;28;45469;-72
2021/12/21 00:59:44;;;;;;;;;4.00;2.75;;;;;21.61;34.16;102356.53;5056096;28;45968;-72
2021/12/21 01:02:10;;;;;;;;;3.25;2.00;;;;;21.60;33.96;102349.56;5057157;28;45344;-72
2021/12/21 01:04:41;;;;;;;;;1.00;1.00;;;;;21.60;33.94;102354.84;5055629;28;45603;-73
2021/12/21 01:07:18;;;;;;;;;3.00;3.00;;;;;21.58;34.05;102332.97;5055503;28;45535;-72
2021/12/21 01:12:36;;;;;;;;;2.75;2.75;;;;;21.59;33.83;102339.97;5052801;28;47875;-72
2021/12/21 01:17:47;;;;;;;;;2.00;2.00;;;;;21.59;34.12;102332.03;5053576;28;46089;-72
2021/12/21 01:20:27;;;;;;;;;2.00;2.00;;;;;21.57;33.85;102333.97;5037025;28;47069;-72
2021/12/21 01:28:00;;;;;;;;;2.50;2.00;;;;;21.57;33.88;102324.19;5050305;28;45420;-72
2021/12/21 01:35:32;;;;;;;;;1.00;1.00;;;;;21.56;33.48;102325.19;5041799;28;45458;-72
2021/12/21 01:38:05;;;;;;;;;3.00;2.25;;;;;21.57;33.60;102323.38;5042256;28;45330;-72
2021/12/21 01:51:06;;;;;;;;;2.00;1.00;;;;;21.48;33.55;102312.66;5038998;28;45910;-72
2021/12/21 01:53:32;;;;;;;;;1.50;1.50;;;;;21.45;34.04;102310.28;5052911;28;45595;-72
2021/12/21 01:55:58;;;;;;;;;3.00;1.00;;;;;21.47;33.38;102316.25;5054581;28;45334;-72
2021/12/21 01:58:23;;;;;;;;;2.00;2.00;;;;;21.56;33.57;102327.00;5053224;28;45421;-72
2021/12/21 02:00:49;;;;;;;;;3.00;1.50;;;;;21.56;33.71;102321.69;5054671;28;46003;-73
2021/12/21 02:03:15;;;;;;;;;2.75;2.75;;;;;21.56;33.67;102314.59;5054840;28;45436;-72
2021/12/21 02:05:41;;;;;;;;;1.75;1.75;;;;;21.50;33.75;102305.41;5056203;28;45326;-72
2021/12/21 02:08:06;;;;;;;;;3.25;3.00;;;;;21.55;33.37;102304.13;5055673;28;45527;-72
2021/12/21 02:10:32;;;;;;;;;2.00;2.00;;;;;21.55;33.45;102297.03;5052579;28;47025;-72
2021/12/21 02:12:57;;;;;;;;;1.75;1.75;;;;;21.47;33.60;102289.78;5054401;28;45314;-72
2021/12/21 02:15:25;;;;;;;;;3.00;2.00;;;;;21.55;33.34;102290.88;5054356;28;45425;-72
2021/12/21 02:23:09;;;;;;;;;3.00;3.00;;;;;21.54;33.36;102292.72;5054345;28;45435;-72
2021/12/21 02:30:54;;;;;;;;;2.00;1.00;;;;;21.54;33.71;102282.13;5054143;28;46008;-72
2021/12/21 02:33:22;;;;;;;;;1.75;1.75;;;;;21.49;33.18;102269.28;5054150;28;45476;-72
2021/12/21 02:35:49;;;;;;;;;1.25;1.25;;;;;21.54;33.21;102271.53;5054949;28;45279;-72
2021/12/21 02:38:14;;;;;;;;;3.25;3.00;;;;;21.53;33.52;102272.50;5054098;28;45377;-72
2021/12/21 02:40:41;;;;;;;;;2.75;2.50;;;;;21.47;33.56;102259.81;5053690;28;46371;-72
2021/12/21 02:43:08;;;;;;;;;3.00;1.75;;;;;21.54;33.27;102273.34;5053927;28;45413;-72
2021/12/21 02:45:33;;;;;;;;;2.00;2.00;;;;;21.50;33.45;102264.84;5053357;28;45488;-72
2021/12/21 02:47:59;;;;;;;;;1.75;1.75;;;;;21.53;33.09;102267.19;5053414;28;45337;-72
2021/12/21 02:50:24;;;;;;;;;1.75;1.75;;;;;21.53;33.57;102261.91;5052974;28;46306;-72
2021/12/21 02:52:51;;;;;;;;;2.50;1.50;;;;;21.49;33.21;102263.19;5048695;28;45611;-72
2021/12/21 02:55:17;;;;;;;;;4.00;3.00;;;;;21.51;33.52;102267.34;5048757;28;45436;-72
2021/12/21 02:57:42;;;;;;;;;2.00;2.00;;;;;21.51;33.30;102263.88;5050876;28;45531;-72
2021/12/21 03:00:10;;;;;;;;;2.25;2.00;;;;;21.42;33.11;102251.50;5036799;28;46138;-72
2021/12/21 03:02:35;;;;;;;;;2.50;2.50;;;;;21.51;33.27;102258.56;5039469;28;45475;-72
2021/12/21 03:05:01;;;;;;;;;2.75;2.00;;;;;21.38;33.38;102243.81;5050033;28;45584;-72
2021/12/21 03:10:09;;;;;;;;;3.25;2.75;;;;;21.51;33.11;102256.75;5041030;28;45337;-72
2021/12/21 03:15:27;;;;;;;;;3.75;3.25;;;;;21.52;33.27;102258.41;5038449;28;45455;-72
2021/12/21 03:17:54;;;;;;;;;2.50;1.75;;;;;21.52;32.90;102257.56;5037710;28;45298;-72
2021/12/21 03:20:21;;;;;;;;;1.50;1.50;;;;;21.52;33.42;102260.22;5039873;28;48701;-72
2021/12/21 03:22:46;;;;;;;;;1.75;1.25;;;;;21.46;33.17;102247.56;5040452;28;45569;-72
2021/12/21 03:25:12;;;;;;;;;2.75;2.75;;;;;21.50;33.15;102260.38;5040673;28;45303;-72
2021/12/21 03:27:37;;;;;;;;;3.00;3.00;;;;;21.51;33.29;102251.47;5040339;28;45401;-73
2021/12/21 03:30:07;;;;;;;;;3.00;3.00;;;;;21.52;33.36;102262.88;5036224;28;45413;-72
2021/12/21 03:32:32;;;;;;;;;2.50;2.25;;;;;21.51;33.21;102259.41;5055732;28;45418;-72
2021/12/21 03:34:57;;;;;;;;;5.00;2.00;;;;;21.50;33.16;102262.19;5053460;28;45327;-72
2021/12/21 03:37:23;;;;;;;;;2.00;1.50;;;;;21.51;33.09;102261.22;5044522;28;45381;-72
2021/12/21 03:39:51;;;;;;;;;2.00;1.25;;;;;21.51;33.14;102263.88;5053431;28;45912;-72
2021/12/21 03:42:17;;;;;;;;;3.00;2.25;;;;;21.52;32.95;102260.22;5053412;28;45591;-72
2021/12/21 03:44:42;;;;;;;;;2.75;2.75;;;;;21.51;32.96;102261.22;5054525;28;45454;-72
2021/12/21 03:47:10;;;;;;;;;2.75;1.75;;;;;21.35;33.21;102244.09;5054307;28;45394;-72
2021/12/21 03:52:09;;;;;;;;;3.25;2.25;;;;;21.53;32.98;102256.59;5052708;28;45461;-72
2021/12/21 03:54:35;;;;;;;;;1.75;1.75;;;;;21.52;33.03;102262.88;5051469;28;45374;-72
2021/12/21 03:57:01;;;;;;;;;4.25;2.25;;;;;21.39;32.83;102239.38;5055106;28;45503;-72
2021/12/21 03:59:27;;;;;;;;;2.75;2.75;;;;;21.47;32.96;102257.16;5058579;28;47066;-72
2021/12/21 04:01:53;;;;;;;;;5.25;4.50;;;;;21.42;32.73;102238.25;5056411;28;45507;-72
2021/12/21 04:04:18;;;;;;;;;3.00;3.00;;;;;21.50;33.01;102259.53;5056556;28;45340;-72
2021/12/21 04:06:44;;;;;;;;;2.75;2.75;;;;;21.41;33.08;102240.06;5054903;28;45547;-73
2021/12/21 04:09:10;;;;;;;;;3.75;2.00;;;;;21.50;32.72;102252.44;5056560;28;46164;-72
2021/12/21 04:11:35;;;;;;;;;3.75;3.75;;;;;21.51;32.90;102255.91;5058183;28;45427;-73
2021/12/21 04:14:02;;;;;;;;;3.00;2.00;;;;;21.51;32.98;102258.56;5057062;28;45520;-72
2021/12/21 04:16:27;;;;;;;;;3.00;3.00;;;;;21.51;32.86;102250.63;5056396;28;45420;-72
2021/12/21 04:18:53;;;;;;;;;2.25;2.00;;;;;21.50;32.98;102252.44;5056361;28;45591;-72
2021/12/21 04:21:18;;;;;;;;;6.25;3.00;;;;;21.51;32.89;102251.47;5056089;28;45315;-72
2021/12/21 04:23:44;;;;;;;;;2.75;2.50;;;;;21.45;32.95;102236.13;5057467;28;45338;-72
2021/12/21 04:26:11;;;;;;;;;2.00;2.00;;;;;21.51;32.98;102251.47;5043911;28;45506;-72
2021/12/21 04:28:37;;;;;;;;;3.00;2.00;;;;;21.52;32.55;102252.28;5044359;28;47256;-72
2021/12/21 04:31:04;;;;;;;;;4.75;3.25;;;;;21.50;32.93;102239.19;5043550;28;45350;-72
2021/12/21 04:33:30;;;;;;;;;3.00;3.00;;;;;21.51;32.68;102235.59;5054958;28;45301;-72
2021/12/21 04:35:55;;;;;;;;;2.75;2.75;;;;;21.51;32.77;102235.59;5039428;28;45565;-73
2021/12/21 04:38:28;;;;;;;;;2.25;2.25;;;;;21.52;32.62;102223.16;5042518;28;46284;-73
2021/12/21 04:41:01;;;;;;;;;1.50;1.50;;;;;21.44;32.75;102207.16;5043209;28;45334;-73
2021/12/21 04:43:26;;;;;;;;;4.50;2.75;;;;;21.49;33.07;102218.16;5043186;28;45340;-73
2021/12/21 04:45:52;;;;;;;;;2.50;1.75;;;;;21.51;32.92;102222.34;5042673;28;45461;-72
2021/12/21 04:48:18;;;;;;;;;4.00;3.00;;;;;21.46;33.04;102214.00;5040411;28;45619;-72
2021/12/21 04:50:43;;;;;;;;;3.00;3.00;;;;;21.51;33.14;102224.97;5040529;28;45235;-73
2021/12/21 04:53:09;;;;;;;;;4.00;3.00;;;;;21.42;32.96;102215.22;5043086;28;45507;-72
2021/12/21 04:55:35;;;;;;;;;3.00;3.00;;;;;21.36;32.58;102203.44;5042988;28;45888;-73
2021/12/21 04:58:01;;;;;;;;;4.00;2.50;;;;;21.50;32.78;102231.25;5042718;28;45964;-72
2021/12/21 05:00:26;;;;;;;;;5.00;4.00;;;;;21.50;32.83;102230.41;5041231;28;45588;-71
2021/12/21 05:02:52;;;;;;;;;3.00;3.00;;;;;21.50;33.02;102236.53;5040119;28;45357;-72
2021/12/21 05:05:17;;;;;;;;;3.75;3.50;;;;;21.18;32.62;102185.59;5042092;28;45423;-73
2021/12/21 05:07:47;;;;;;;;;2.50;2.00;;;;;21.48;32.74;102235.84;5051173;28;46454;-72
2021/12/21 05:10:13;;;;;;;;;3.50;3.50;;;;;21.48;33.08;102237.66;5055489;28;45515;-72
2021/12/21 05:12:38;;;;;;;;;6.50;4.00;;;;;21.47;32.87;102228.03;5054252;28;45475;-72
2021/12/21 05:15:05;;;;;;;;;4.75;4.00;;;;;21.47;32.94;102223.59;5055705;28;45634;-72
2021/12/21 05:17:31;;;;;;;;;5.00;3.75;;;;;21.47;32.92;102235.97;5058110;28;47445;-71
2021/12/21 05:19:56;;;;;;;;;3.50;3.50;;;;;21.33;33.04;102216.09;5056622;28;45303;-72
2021/12/21 05:22:23;;;;;;;;;5.00;5.00;;;;;21.45;33.13;102227.34;5056738;28;45616;-73
2021/12/21 05:24:48;;;;;;;;;3.00;3.00;;;;;21.45;32.97;102232.66;5054842;28;45433;-72
2021/12/21 05:27:14;;;;;;;;;4.00;3.00;;;;;21.45;32.92;102230.00;5056360;28;45986;-72
2021/12/21 05:29:39;;;;;;;;;3.00;3.00;;;;;21.43;32.87;102227.50;5057514;28;45382;-72
2021/12/21 05:32:05;;;;;;;;;4.00;4.00;;;;;21.37;32.75;102225.41;5057568;28;45408;-72
2021/12/21 05:34:31;;;;;;;;;7.25;4.50;;;;;21.40;33.22;102230.44;5055042;28;45552;-73
2021/12/21 05:36:58;;;;;;;;;3.25;3.25;;;;;21.33;32.76;102219.59;5054943;28;47361;-72
2021/12/21 05:39:27;;;;;;;;;4.75;4.75;;;;;21.42;32.82;102236.41;5055145;28;45284;-72
2021/12/21 05:41:56;;;;;;;;;4.75;3.00;;;;;21.33;33.02;102216.94;5055222;28;45433;-72
2021/12/21 05:44:26;;;;;;;;;3.75;3.00;;;;;21.33;33.03;102221.38;5057228;28;45489;-72
2021/12/21 05:46:54;;;;;;;;;5.50;4.25;;;;;21.40;33.12;102235.72;5054825;28;46738;-72
2021/12/21 05:49:20;;;;;;;;;3.00;2.75;;;;;21.33;33.25;102224.03;5054566;28;45341;-72
2021/12/21 05:51:47;;;;;;;;;4.25;3.00;;;;;21.39;32.83;102240.19;5053253;28;45373;-72
2021/12/21 05:54:14;;;;;;;;;3.25;3.25;;;;;21.38;32.92;102232.38;5055168;28;45390;-72
2021/12/21 05:56:40;;;;;;;;;3.50;2.50;;;;;21.37;32.76;102236.84;5056135;28;46281;-73
2021/12/21 05:59:05;;;;;;;;;5.00;3.25;;;;;21.32;32.91;102225.84;5055411;28;45337;-73
2021/12/21 06:01:33;;;;;;;;;5.00;4.00;;;;;21.44;33.04;102244.22;5054251;28;45782;-73
2021/12/21 06:04:00;;;;;;;;;5.50;4.00;;;;;21.43;32.82;102238.09;5052875;28;45302;-72
2021/12/21 06:06:26;;;;;;;;;4.25;3.25;;;;;21.44;32.70;102245.06;5053804;28;46353;-72
2021/12/21 06:08:53;;;;;;;;;4.00;4.00;;;;;21.44;32.95;102244.22;5054625;28;45574;-72
2021/12/21 06:11:20;;;;;;;;;4.75;3.00;;;;;;;;5056812;28;45436;-72
2021/12/21 06:26:44;;;;;;;;;4.75;4.75;;;;;21.43;32.42;102246.03;5055461;28;46250;-72
2021/12/21 06:29:09;;;;;;;;;4.00;4.00;;;;;21.45;32.76;102233.50;5055472;28;45374;-73
2021/12/21 06:31:34;;;;;;;;;4.75;4.75;;;;;21.44;32.78;102237.13;5052260;28;45333;-72
2021/12/21 06:34:00;;;;;;;;;2.75;2.75;;;;;21.45;32.50;102238.78;5036281;28;45393;-71
2021/12/21 06:36:26;;;;;;;;;6.00;5.00;;;;;21.46;32.71;102240.47;5053950;28;46351;-73
2021/12/21 06:38:53;;;;;;;;;3.25;3.25;;;;;21.40;32.66;102238.38;5054286;28;45569;-73
2021/12/21 06:41:19;;;;;;;;;6.00;3.50;;;;;21.46;32.54;102242.28;5056448;28;45437;-72
2021/12/21 06:43:45;;;;;;;;;5.00;5.00;;;;;21.46;32.75;102239.63;5052565;28;45454;-72
2021/12/21 06:46:45;;;;;;;;;3.50;3.50;;;;;21.46;32.76;102250.22;5051230;28;46144;-71
2021/12/21 06:51:51;;;;;;;;;5.00;4.50;;;;;21.42;32.93;102230.31;5053873;28;45281;-73
2021/12/21 06:54:17;;;;;;;;;4.00;4.00;;;;;21.45;33.04;102230.00;5054137;28;45591;-74
2021/12/21 06:56:43;;;;;;;;;6.25;3.00;;;;;21.45;32.69;102235.28;5054798;28;45495;-75
2021/12/21 06:59:09;;;;;;;;;4.25;3.75;;;;;21.44;33.02;102234.47;5054616;28;45471;-73
2021/12/21 07:01:37;;;;;;;;;6.00;5.00;;;;;21.44;32.82;102242.44;5053434;28;45547;-75
2021/12/21 07:04:03;;;;;;;;;3.25;3.25;;;;;21.44;32.93;102244.22;5053793;28;45314;-75
2021/12/21 07:06:29;;;;;;;;;4.00;4.00;;;;;21.42;32.87;102241.72;5052487;28;47056;-74
2021/12/21 07:09:33;;;;;;;;;5.25;3.25;;;;;21.44;33.08;102244.22;5047101;28;45610;-73
2021/12/21 07:11:55;;;;;;;;;6.00;4.50;;;;;21.45;33.56;102245.88;5051540;28;45333;-74
2021/12/21 07:20:09;;;;;;;;;9.00;4.75;;;;;21.36;33.82;102210.53;4973061;28;45529;-75
2021/12/21 07:22:35;;;;;;;;;2.75;2.75;;;;;21.44;33.79;102229.19;4972690;28;45418;-75
2021/12/21 07:25:00;;;;;;;;;4.75;3.00;;;;;21.43;33.94;102230.16;4972722;28;45457;-76
2021/12/21 07:27:25;;;;;;;;;3.50;3.25;;;;;21.45;33.78;102230.84;4972972;28;45431;-75
2021/12/21 07:29:51;;;;;;;;;3.00;3.00;;;;;21.46;34.00;102239.63;4972145;28;45533;-74
2021/12/21 07:32:16;;;;;;;;;6.00;6.00;;;;;21.45;33.92;102240.59;4974207;28;45736;-72
2021/12/21 07:34:41;;;;;;;;;6.50;4.50;;;;;21.32;34.22;102222.34;4973143;28;45608;-76
2021/12/21 07:37:09;;;;;;;;;5.00;5.00;;;;;21.45;33.78;102246.72;4972966;28;46074;-73
2021/12/21 07:39:36;;;;;;;;;5.75;3.75;;;;;21.39;33.78;102242.03;4973408;28;45403;-75
2021/12/21 07:42:02;;;;;;;;;4.00;4.00;;;;;21.45;33.88;102246.72;4972434;28;45535;-75
2021/12/21 07:44:27;;;;;;;;;5.25;5.25;;;;;21.44;33.89;102247.72;4972673;28;45405;-76
2021/12/21 07:46:52;;;;;;;;;4.50;4.00;;;;;21.45;33.95;102248.53;4972670;28;51119;-76
2021/12/21 07:49:18;;;;;;;;;6.50;4.75;;;;;21.45;33.93;102257.31;4972953;28;45498;-75
2021/12/21 07:51:44;;;;;;;;;7.00;4.00;;;;;21.46;34.08;102255.50;5039945;28;45459;-76
2021/12/21 07:54:09;;;;;;;;;8.00;5.50;;;;;21.45;34.16;102264.41;5053374;28;45498;-75
2021/12/21 07:56:35;;;;;;;;;5.75;4.25;;;;;21.46;34.13;102252.88;5055149;28;45880;-75
2021/12/21 07:59:01;;;;;;;;;4.25;4.00;;;;;21.44;33.95;102253.03;5051528;28;45486;-73
2021/12/21 08:01:26;;;;;;;;;4.50;3.50;;;;;21.43;33.96;102248.69;5051459;28;45504;-74
2021/12/21 08:03:53;;;;;;;;;5.25;4.25;;;;;21.46;33.73;102251.06;5052993;28;45503;-76
2021/12/21 08:06:19;;;;;;;;;5.50;4.25;;;;;21.39;33.72;102245.47;5053014;28;45425;-75
2021/12/21 08:08:46;;;;;;;;;3.75;3.75;;;;;21.40;33.90;102248.97;5053875;28;45274;-76
2021/12/21 08:11:28;;;;;;;;;7.50;4.75;;;;;21.41;33.87;102240.06;5054481;28;45239;-76
2021/12/21 08:13:54;;;;;;;;;7.25;6.50;;;;;21.45;33.69;102257.31;5052379;28;45468;-75
2021/12/21 08:16:20;;;;;;;;;4.50;4.50;;;;;21.45;33.31;102252.03;5052653;28;45246;-75
2021/12/21 08:18:45;;;;;;;;;3.00;3.00;;;;;21.45;33.48;102254.66;5052584;28;45173;-75
2021/12/21 08:21:13;;;;;;;;;6.00;5.25;;;;;21.42;33.46;102247.00;5053035;28;45449;-75
2021/12/21 08:23:38;;;;;;;;;5.50;4.00;;;;;21.45;33.71;102257.31;5054423;28;45493;-75
2021/12/21 08:26:05;;;;;;;;;6.00;5.00;;;;;21.32;33.64;102232.94;5052081;28;46260;-74
2021/12/21 08:28:31;;;;;;;;;5.50;5.00;;;;;21.46;33.83;102259.00;5050779;28;45303;-75
2021/12/21 08:30:57;;;;;;;;;4.75;4.75;;;;;21.44;33.48;102245.06;5052729;28;45442;-75
2021/12/21 08:33:23;;;;;;;;;6.00;4.75;;;;;21.48;33.87;102253.56;5052893;28;45466;-75
2021/12/21 08:35:48;;;;;;;;;4.50;4.50;;;;;21.45;34.04;102253.84;5052966;28;45531;-75
2021/12/21 08:38:17;;;;;;;;;4.50;4.25;;;;;21.44;33.87;102254.81;5054212;28;45488;-75
2021/12/21 08:40:46;;;;;;;;;6.25;4.50;;;;;21.36;33.61;102237.00;5051407;28;45540;-76
2021/12/21 08:43:24;;;;;;;;;6.00;4.00;;;;;21.45;33.56;102245.88;5054070;28;45371;-75
2021/12/21 08:45:52;;;;;;;;;5.00;5.00;;;;;21.44;33.97;102237.13;5055504;28;45457;-75
2021/12/21 08:48:18;;;;;;;;;2.25;2.25;;;;;21.44;34.11;102234.47;5055203;28;45479;-75
2021/12/21 08:50:44;;;;;;;;;6.25;5.00;;;;;21.41;33.95;102232.13;5057258;28;45472;-75
2021/12/21 08:53:12;;;;;;;;;6.00;5.00;;;;;21.36;33.73;102224.59;5057048;28;45538;-75
2021/12/21 08:55:38;;;;;;;;;5.00;3.25;;;;;21.37;33.47;102236.84;5055336;28;47150;-75
2021/12/21 08:58:03;;;;;;;;;3.00;3.00;;;;;21.41;33.75;102250.66;5055326;28;45361;-75
2021/12/21 09:00:28;;;;;;;;;7.00;4.75;;;;;21.38;33.82;102251.75;5055854;28;45274;-75
2021/12/21 09:02:54;;;;;;;;;5.00;3.25;;;;;21.42;33.87;102260.25;5055970;28;45460;-75
2021/12/21 09:05:26;;;;;;;;;7.25;5.75;;;;;21.39;33.57;102247.31;5057745;28;47007;-76
2021/12/21 09:07:52;;;;;;;;;5.50;3.50;;;;;21.39;33.79;102253.41;5053841;28;45472;-75
2021/12/21 09:10:20;;;;;;;;;5.00;5.00;;;;;21.40;33.83;102254.25;5055693;28;45322;-76
2021/12/21 09:12:47;;;;;;;;;6.00;4.50;;;;;21.40;34.02;102259.56;5055185;28;45470;-75
2021/12/21 09:15:14;;;;;;;;;4.50;4.50;;;;;21.21;33.70;102232.13;5055412;28;46390;-76
2021/12/21 09:17:41;;;;;;;;;5.00;5.00;;;;;21.02;33.54;102196.78;5057045;28;45399;-75
2021/12/21 09:20:09;;;;;;;;;4.00;4.00;;;;;21.38;33.87;102264.16;5054952;28;45389;-74
2021/12/21 09:22:36;;;;;;;;;3.75;3.75;;;;;21.37;33.61;102265.13;5055350;28;45242;-76
2021/12/21 09:25:01;;;;;;;;;4.50;4.00;;;;;21.37;33.74;102267.78;5055124;28;47405;-76
2021/12/21 09:27:27;;;;;;;;;3.75;3.75;;;;;21.36;33.67;102274.91;5055006;28;47916;-76
2021/12/21 09:29:53;;;;;;;;;7.25;3.75;;;;;21.26;33.60;102259.00;5037060;28;45370;-76
2021/12/21 09:32:18;;;;;;;;;5.25;4.50;;;;;21.36;33.58;102274.91;5055525;28;45317;-76
2021/12/21 09:34:45;;;;;;;;;5.00;5.00;;;;;21.35;33.65;102277.69;5055036;28;45365;-76
2021/12/21 09:37:16;;;;;;;;;7.75;4.75;;;;;21.37;33.36;102278.38;5054868;28;45408;-76
2021/12/21 09:39:50;;;;;;;;;6.25;6.00;;;;;21.38;33.71;102278.25;5055009;28;45394;-76
2021/12/21 09:42:18;;;;;;;;;6.75;4.00;;;;;21.26;33.39;102260.84;5055346;28;45301;-76
2021/12/21 09:44:45;;;;;;;;;6.75;5.00;;;;;21.39;33.66;102285.19;5055304;28;46486;-76
2021/12/21 09:47:11;;;;;;;;;5.25;4.00;;;;;21.39;33.45;102292.31;5054595;28;45474;-75
2021/12/21 09:49:38;;;;;;;;;6.50;6.50;;;;;21.42;33.42;102291.22;5054918;28;45420;-75
2021/12/21 09:52:06;;;;;;;;;6.50;6.25;;;;;21.41;33.33;102295.66;5054966;28;45489;-75
2021/12/21 09:54:33;;;;;;;;;4.75;4.00;;;;;21.42;33.69;102296.50;5054289;28;46106;-75
2021/12/21 09:56:58;;;;;;;;;8.50;5.00;;;;;;;;5054544;28;45401;-75
2021/12/21 09:59:25;;;;;;;;;7.00;6.00;;;;;21.30;33.24;102283.41;5055900;28;45472;-75
2021/12/21 10:01:50;;;;;;;;;4.25;4.25;;;;;21.43;33.40;102291.06;5054648;28;45446;-75
2021/12/21 10:04:17;;;;;;;;;9.00;5.50;;;;;21.44;33.33;102295.38;5054482;28;47216;-75
2021/12/21 10:06:48;;;;;;;;;6.75;5.25;;;;;21.45;33.33;102289.09;5036563;28;45457;-75
2021/12/21 10:09:15;;;;;;;;;7.75;5.00;;;;;21.44;33.48;102292.75;5054409;28;45332;-76
2021/12/21 10:11:42;;;;;;;;;7.75;5.75;;;;;21.46;33.31;102296.06;5056068;28;45405;-75
2021/12/21 10:14:08;;;;;;;;;3.75;3.75;;;;;21.48;33.44;102295.91;5055181;28;46094;-75
2021/12/21 10:16:34;;;;;;;;;7.00;6.00;;;;;21.47;32.99;102299.53;5054224;28;46713;-75
2021/12/21 10:19:00;;;;;;;;;8.75;6.25;;;;;21.46;33.71;102297.88;5054738;28;45572;-75
2021/12/21 10:21:25;;;;;;;;;4.50;4.25;;;;;21.47;33.24;102299.53;5054415;28;45542;-76
2021/12/21 10:23:51;;;;;;;;;8.00;4.75;;;;;21.45;33.02;102297.03;5035915;28;46081;-76
2021/12/21 10:26:22;;;;;;;;;4.00;4.00;;;;;21.47;33.56;102302.19;5056352;28;45366;-75
2021/12/21 10:28:56;;;;;;;;;5.00;4.25;;;;;21.39;33.44;102290.47;5054383;28;45452;-76
2021/12/21 10:31:36;;;;;;;;;4.50;4.50;;;;;21.28;33.12;102274.75;5054194;28;45376;-75
2021/12/21 10:34:03;;;;;;;;;5.50;5.50;;;;;21.36;33.53;102277.56;5036166;28;46397;-76
2021/12/21 10:36:29;;;;;;;;;5.50;5.50;;;;;21.43;33.51;102296.34;5055171;28;47220;-76
2021/12/21 10:39:00;;;;;;;;;5.75;4.25;;;;;21.38;33.19;102286.19;5053877;28;45550;-75
2021/12/21 10:41:32;;;;;;;;;6.75;5.00;;;;;21.44;32.99;102299.84;5056378;28;45539;-74
2021/12/21 10:43:58;;;;;;;;;4.00;4.00;;;;;;;;5053766;28;46439;-76
2021/12/21 10:46:27;;;;;;;;;6.00;4.50;;;;;21.43;33.58;102285.75;5053766;28;45443;-75
2021/12/21 10:49:03;;;;;;;;;5.75;4.75;;;;;21.28;33.50;102265.03;5053928;28;45459;-75
2021/12/21 10:51:29;;;;;;;;;5.25;5.00;;;;;21.40;33.30;102280.75;5054074;28;45449;-76
2021/12/21 10:53:54;;;;;;;;;4.75;4.50;;;;;21.40;32.95;102276.28;5051778;28;46079;-74
2021/12/21 10:56:19;;;;;;;;;6.50;5.00;;;;;21.29;32.99;102252.59;5040120;28;48062;-75
2021/12/21 10:58:45;;;;;;;;;4.50;4.50;;;;;21.36;33.25;102263.47;5031733;28;45557;-76
2021/12/21 11:01:16;;;;;;;;;5.00;4.75;;;;;21.40;33.17;102273.63;5042498;28;45476;-75
2021/12/21 11:03:49;;;;;;;;;4.50;4.50;;;;;21.40;33.30;102271.00;5051844;28;46196;-75
2021/12/21 11:06:22;;;;;;;;;3.50;3.50;;;;;21.28;33.38;102254.44;5037038;28;45498;-75
2021/12/21 11:08:50;;;;;;;;;5.25;4.00;;;;;21.24;33.30;102237.13;5038127;28;45307;-76
2021/12/21 11:11:33;;;;;;;;;6.75;4.50;;;;;21.39;33.45;102256.06;5040103;28;45330;-75
2021/12/21 11:14:03;;;;;;;;;4.75;4.75;;;;;21.40;33.06;102251.63;5040450;28;46180;-75
2021/12/21 11:16:39;;;;;;;;;5.00;4.00;;;;;21.39;33.14;102245.47;5021372;28;45842;-75
2021/12/21 11:19:06;;;;;;;;;4.50;3.75;;;;;21.40;33.27;102248.97;5049209;28;45488;-75
2021/12/21 11:21:32;;;;;;;;;5.00;4.75;;;;;21.32;33.28;102233.78;5049949;28;45606;-75
2021/12/21 11:24:03;;;;;;;;;4.00;4.00;;;;;21.24;33.37;102213.31;5052452;28;45488;-75
2021/12/21 11:26:31;;;;;;;;;5.25;5.25;;;;;21.40;33.03;102235.72;5050793;28;45332;-75
2021/12/21 11:29:04;;;;;;;;;6.25;4.50;;;;;21.40;33.00;102236.56;5049036;28;45516;-75
2021/12/21 11:31:32;;;;;;;;;3.00;3.00;;;;;21.21;33.37;102205.66;5048577;28;45481;-75
2021/12/21 11:33:59;;;;;;;;;6.25;4.75;;;;;21.32;33.29;102223.19;5048734;28;47391;-75
2021/12/21 11:39:08;;;;;;;;;5.50;5.50;;;;;21.43;33.28;102235.44;5036349;28;45304;-75
2021/12/21 11:41:36;;;;;;;;;5.00;4.25;;;;;21.40;33.00;102228.63;5039770;28;45359;-75
2021/12/21 11:44:23;;;;;;;;;5.25;4.75;;;;;21.37;32.99;102214.81;5040277;28;50880;-75
2021/12/21 11:46:54;;;;;;;;;8.25;5.50;;;;;21.45;33.19;102227.34;5040243;28;45317;-75
2021/12/21 11:49:31;;;;;;;;;5.00;5.00;;;;;21.45;32.99;102222.06;5040323;28;45453;-75
2021/12/21 11:52:19;;;;;;;;;7.00;5.00;;;;;21.46;33.11;102221.94;5040089;28;45500;-75
2021/12/21 11:54:46;;;;;;;;;4.50;4.50;;;;;21.34;33.10;102205.34;5040555;28;47529;-75
2021/12/21 11:57:11;;;;;;;;;4.75;4.00;;;;;21.39;33.14;102216.34;5052381;28;45579;-75
2021/12/21 11:59:37;;;;;;;;;3.00;3.00;;;;;21.48;32.83;102219.13;5051419;28;45586;-76
2021/12/21 12:02:04;;;;;;;;;4.75;3.50;;;;;21.42;32.89;102219.72;5053303;28;45645;-75
2021/12/21 12:04:29;;;;;;;;;7.00;5.25;;;;;21.48;32.86;102232.38;5052809;28;46491;-75
2021/12/21 12:06:57;;;;;;;;;7.00;4.00;;;;;21.45;32.80;102214.94;5052608;28;45429;-75
2021/12/21 12:09:31;;;;;;;;;8.25;4.25;;;;;21.47;33.01;102210.34;5053128;28;45377;-75
2021/12/21 12:12:15;;;;;;;;;5.00;5.00;;;;;21.49;32.95;102215.50;5053060;28;45592;-75
2021/12/21 12:14:44;;;;;;;;;3.75;3.75;;;;;21.48;32.74;102217.31;5050766;28;46201;-76
2021/12/21 12:17:13;;;;;;;;;4.00;4.00;;;;;21.17;32.91;102168.06;5054235;28;45362;-76
2021/12/21 12:19:43;;;;;;;;;6.25;5.25;;;;;21.23;32.68;102179.06;5055969;28;45372;-75
2021/12/21 12:22:13;;;;;;;;;4.25;4.25;;;;;21.47;32.73;102218.28;5054601;28;45376;-75
2021/12/21 12:24:55;;;;;;;;;7.00;6.00;;;;;21.47;32.78;102201.56;5055624;28;46339;-75
2021/12/21 12:27:27;;;;;;;;;5.50;4.25;;;;;21.47;33.03;102204.22;5042330;28;45406;-75
2021/12/21 12:29:54;;;;;;;;;4.50;3.25;;;;;21.46;32.75;102199.91;5056487;28;45686;-75
2021/12/21 12:32:51;;;;;;;;;4.75;3.00;;;;;21.44;32.99;102186.81;5058429;28;45297;-75
2021/12/21 12:35:21;;;;;;;;;6.00;6.00;;;;;21.44;32.89;102202.72;5057852;28;47373;-75
2021/12/21 12:37:59;;;;;;;;;7.00;7.00;;;;;21.44;33.13;102189.47;5055968;28;49382;-75
2021/12/21 12:40:31;;;;;;;;;4.50;4.50;;;;;21.44;32.93;102186.81;5055742;28;45469;-75
2021/12/21 12:43:08;;;;;;;;;5.00;5.00;;;;;21.45;33.00;102177.03;5056226;28;45539;-75
2021/12/21 12:45:39;;;;;;;;;4.75;4.50;;;;;21.38;33.49;102167.03;5055507;28;46486;-76
2021/12/21 12:48:18;;;;;;;;;6.25;4.50;;;;;21.44;32.74;102162.16;5056096;28;45528;-75